Time;durP1;ratioP1;P1;durP2;ratioP2;P2;SDS_P1;SDS_P2;PMS_P1;PMS_P2;Temp;Humidity;BMP_temperature;BMP_pressure;BME280_temperature;BME280_humidity;BME280_pressure;Samples;Min_cycle;Max_cycle;Signal;HPM_P1;HPM_P2
2023/05/05 00:00:56;;;;;;;0.20;0.20;;;11.70;90.70;;;;;;4959068;28;20050;-91
2023/05/05 00:03:26;;;;;;;0.20;0.20;;;11.00;90.60;;;;;;5106198;23;20013;-92
2023/05/05 00:09:02;;;;;;;0.20;0.20;;;11.70;90.90;;;;;;4965153;28;20090;-92
2023/05/05 00:11:28;;;;;;;0.13;0.13;;;13.00;91.20;;;;;;4975683;28;20047;-91
2023/05/05 00:14:00;;;;;;;0.13;0.13;;;11.70;91.20;;;;;;4990519;28;20034;-91
2023/05/05 00:16:44;;;;;;;0.20;0.20;;;11.90;91.30;;;;;;4979706;28;20073;-91
2023/05/05 00:19:28;;;;;;;0.13;0.13;;;11.70;91.20;;;;;;4985095;28;20043;-90
2023/05/05 00:22:07;;;;;;;0.20;0.20;;;11.70;91.40;;;;;;4976829;28;20042;-90
2023/05/05 00:24:45;;;;;;;0.20;0.20;;;11.60;91.50;;;;;;4975736;28;20054;-90
2023/05/05 00:27:14;;;;;;;0.20;0.20;;;11.60;91.50;;;;;;4995155;28;20285;-90
2023/05/05 00:29:58;;;;;;;0.20;0.20;;;12.10;91.50;;;;;;5006463;28;20046;-91
2023/05/05 00:33:12;;;;;;;0.20;0.20;;;11.40;91.60;;;;;;4999485;28;20053;-91
2023/05/05 00:38:30;;;;;;;0.10;0.10;;;12.50;91.80;;;;;;5250060;23;20134;-91
2023/05/05 00:40:56;;;;;;;0.10;0.10;;;11.50;91.60;;;;;;4934629;29;20591;-91
2023/05/05 00:44:06;;;;;;;0.20;0.20;;;11.60;91.70;;;;;;4938193;28;20117;-90
2023/05/05 00:47:10;;;;;;;0.20;0.20;;;11.30;91.70;;;;;;4937900;23;20193;-91
2023/05/05 00:49:42;;;;;;;0.20;0.20;;;11.50;91.80;;;;;;4987713;28;20050;-91
2023/05/05 00:52:26;;;;;;;0.20;0.20;;;11.50;92.00;;;;;;4994212;28;21652;-91
2023/05/05 00:54:52;;;;;;;0.20;0.20;;;11.50;92.10;;;;;;4988480;28;20109;-91
2023/05/05 00:57:36;;;;;;;0.10;0.10;;;11.40;92.10;;;;;;4992033;28;20049;-91
2023/05/05 01:00:27;;;;;;;0.15;0.15;;;12.80;92.50;;;;;;4976805;28;20085;-91
2023/05/05 01:02:59;;;;;;;0.20;0.20;;;11.20;92.00;;;;;;4994376;28;20038;-90
2023/05/05 01:06:03;;;;;;;0.10;0.10;;;11.40;92.20;;;;;;4979037;28;20352;-91
2023/05/05 01:09:13;;;;;;;0.10;0.10;;;11.30;92.10;;;;;;4979841;28;20105;-90
2023/05/05 01:15:54;;;;;;;0.20;0.20;;;11.60;92.30;;;;;;4985794;28;20139;-92
2023/05/05 01:18:42;;;;;;;0.20;0.20;;;12.20;92.60;;;;;;4969528;28;20045;-90
2023/05/05 01:27:41;;;;;;;0.20;0.20;;;12.60;92.80;;;;;;4990222;28;20088;-91
2023/05/05 01:36:41;;;;;;;0.20;0.20;;;11.10;92.60;;;;;;4996654;28;19922;-91
2023/05/05 01:39:11;;;;;;;0.20;0.20;;;12.20;92.90;;;;;;4995900;28;20054;-92
2023/05/05 01:42:07;;;;;;;0.20;0.20;;;11.10;93.00;;;;;;4978423;28;20445;-91
2023/05/05 01:45:18;;;;;;;0.20;0.20;;;11.10;92.80;;;;;;4984269;28;20070;-91
2023/05/05 01:48:05;;;;;;;0.20;0.20;;;11.30;92.90;;;;;;4873696;29;20045;-90
2023/05/05 01:50:53;;;;;;;0.10;0.10;;;10.40;92.70;;;;;;4963171;28;20043;-90
2023/05/05 01:56:47;;;;;;;0.20;0.20;;;12.20;93.30;;;;;;4997336;28;20054;-90
2023/05/05 01:59:13;;;;;;;0.13;0.13;;;11.10;93.10;;;;;;4980454;28;20057;-92
2023/05/05 02:02:02;;;;;;;0.17;0.17;;;11.00;93.10;;;;;;4996593;28;20030;-89
2023/05/05 02:04:32;;;;;;;0.20;0.20;;;10.90;93.10;;;;;;4980099;28;20038;-91
2023/05/05 02:06:59;;;;;;;0.20;0.20;;;10.50;93.00;;;;;;4991349;28;20340;-90
2023/05/05 02:09:44;;;;;;;0.20;0.20;;;10.90;93.20;;;;;;4975987;28;20402;-90
2023/05/05 02:12:14;;;;;;;0.10;0.10;;;10.90;93.30;;;;;;4975123;28;20042;-90
2023/05/05 02:15:01;;;;;;;0.20;0.20;;;10.90;93.40;;;;;;4976255;28;20096;-91
2023/05/05 02:17:46;;;;;;;0.15;0.15;;;10.90;93.30;;;;;;4979359;28;20077;-90
2023/05/05 02:22:48;;;;;;;0.20;0.20;;;10.90;93.50;;;;;;5092822;23;20062;-92
2023/05/05 02:29:18;;;;;;;0.20;0.20;;;9.90;93.30;;;;;;4948051;28;20053;-89
2023/05/05 02:32:31;;;;;;;0.10;0.10;;;10.90;93.60;;;;;;4973305;28;20603;-91
2023/05/05 02:35:00;;;;;;;0.20;0.20;;;10.80;93.60;;;;;;4973010;28;20034;-91
2023/05/05 02:38:28;;;;;;;0.17;0.17;;;11.00;93.70;;;;;;4958959;28;20043;-91
2023/05/05 02:41:35;;;;;;;0.20;0.20;;;10.80;93.70;;;;;;4947531;28;20050;-90
2023/05/05 02:44:22;;;;;;;0.13;0.13;;;10.80;93.80;;;;;;4972052;28;20100;-90
2023/05/05 02:50:40;;;;;;;0.20;0.20;;;10.20;93.70;;;;;;4958777;28;20094;-91
2023/05/05 02:53:31;;;;;;;0.15;0.15;;;10.80;93.90;;;;;;4958145;28;20046;-90
2023/05/05 02:56:44;;;;;;;0.20;0.20;;;10.70;93.90;;;;;;4969469;28;20099;-92
2023/05/05 02:59:48;;;;;;;0.20;0.20;;;10.80;94.00;;;;;;4959550;28;20106;-90
2023/05/05 03:02:35;;;;;;;0.20;0.20;;;10.80;94.00;;;;;;4958767;28;20055;-91
2023/05/05 03:05:49;;;;;;;0.20;0.20;;;10.40;94.00;;;;;;4973740;28;20049;-91
2023/05/05 03:08:57;;;;;;;0.20;0.20;;;10.80;94.00;;;;;;4934905;29;20202;-90
2023/05/05 03:11:31;;;;;;;0.10;0.10;;;10.80;94.10;;;;;;4953106;28;20046;-90
2023/05/05 03:14:07;;;;;;;0.20;0.20;;;10.80;94.10;;;;;;4996805;28;20018;-91
2023/05/05 03:17:00;;;;;;;0.20;0.20;;;10.80;94.20;;;;;;5133758;23;20058;-90
2023/05/05 03:22:50;;;;;;;0.20;0.20;;;10.70;94.20;;;;;;5010984;23;20047;-92
2023/05/05 03:26:21;;;;;;;0.10;0.10;;;11.10;94.30;;;;;;5334532;23;20054;-90
2023/05/05 03:29:15;;;;;;;0.20;0.20;;;12.10;94.60;;;;;;4976263;28;20039;-90
2023/05/05 03:32:00;;;;;;;0.13;0.13;;;10.30;94.20;;;;;;4972627;28;20039;-90
2023/05/05 03:34:53;;;;;;;0.10;0.10;;;10.20;94.30;;;;;;4962231;28;20046;-90
2023/05/05 03:37:34;;;;;;;0.20;0.20;;;10.80;94.40;;;;;;4993411;28;20051;-90
2023/05/05 03:40:09;;;;;;;0.20;0.20;;;10.70;94.60;;;;;;4972352;28;20101;-89
2023/05/05 03:47:05;;;;;;;0.20;0.20;;;10.70;94.50;;;;;;4972151;28;20045;-91
2023/05/05 03:49:33;;;;;;;0.10;0.10;;;9.30;94.20;;;;;;4961500;28;20054;-91
2023/05/05 03:51:59;;;;;;;0.15;0.15;;;10.70;95.00;;;;;;4977826;28;20146;-91
2023/05/05 03:54:46;;;;;;;0.20;0.20;;;10.80;95.00;;;;;;4974568;28;20396;-91
2023/05/05 03:57:31;;;;;;;0.20;0.20;;;10.00;94.70;;;;;;4987250;28;20565;-91
2023/05/05 04:03:32;;;;;;;;;;;11.40;94.90;;;;;;4899869;29;20081;-91
2023/05/05 04:06:30;;;;;;;0.20;0.20;;;11.00;94.80;;;;;;4903853;29;19923;-91
2023/05/05 04:09:28;;;;;;;0.20;0.20;;;11.10;94.80;;;;;;4985984;23;20137;-90
2023/05/05 04:11:54;;;;;;;0.20;0.20;;;11.10;94.80;;;;;;4987721;28;20038;-91
2023/05/05 04:14:20;;;;;;;0.20;0.20;;;10.90;95.00;;;;;;5000020;28;20041;-90
2023/05/05 04:16:45;;;;;;;0.20;0.20;;;11.00;95.00;;;;;;5017379;28;20482;-91
2023/05/05 04:19:12;;;;;;;0.20;0.20;;;11.00;95.10;;;;;;5017034;28;20045;-91
2023/05/05 04:21:38;;;;;;;0.20;0.20;;;11.00;95.00;;;;;;5023281;28;20272;-91
2023/05/05 04:24:31;;;;;;;0.20;0.20;;;11.00;95.00;;;;;;5000866;28;20086;-91
2023/05/05 04:26:57;;;;;;;0.20;0.20;;;11.30;95.00;;;;;;5004174;23;20062;-91
2023/05/05 04:29:41;;;;;;;0.10;0.10;;;11.10;95.10;;;;;;4998141;28;20058;-91
2023/05/05 04:32:08;;;;;;;0.20;0.20;;;11.10;95.10;;;;;;4995420;28;20046;-91
2023/05/05 04:34:37;;;;;;;0.20;0.20;;;10.70;95.00;;;;;;5006670;23;20058;-91
2023/05/05 04:37:03;;;;;;;0.20;0.20;;;11.10;95.00;;;;;;4960403;28;20058;-91
2023/05/05 04:39:29;;;;;;;0.20;0.20;;;11.20;95.00;;;;;;4964957;28;20098;-92
2023/05/05 04:42:22;;;;;;;0.20;0.20;;;11.20;95.20;;;;;;4939439;28;20057;-93
2023/05/05 04:44:48;;;;;;;0.20;0.20;;;11.10;95.30;;;;;;4976341;28;20043;-90
2023/05/05 04:47:58;;;;;;;0.20;0.20;;;11.20;95.60;;;;;;4966756;28;20088;-91
2023/05/05 04:50:23;;;;;;;0.20;0.20;;;11.10;95.40;;;;;;5002456;23;20054;-89
2023/05/05 04:52:49;;;;;;;0.20;0.20;;;11.20;95.70;;;;;;4978161;28;20037;-90
2023/05/05 04:55:15;;;;;;;0.20;0.20;;;11.20;95.80;;;;;;4981135;28;20035;-90
2023/05/05 04:57:40;;;;;;;0.13;0.13;;;11.20;95.90;;;;;;4983397;28;20098;-91
2023/05/05 05:00:07;;;;;;;0.20;0.20;;;11.10;96.10;;;;;;4954172;28;20117;-90
2023/05/05 05:02:32;;;;;;;0.20;0.20;;;11.10;96.20;;;;;;4976708;28;20054;-89
2023/05/05 05:04:58;;;;;;;0.20;0.20;;;11.10;96.20;;;;;;4964822;28;20039;-88
2023/05/05 05:07:29;;;;;;;0.10;0.10;;;11.10;96.60;;;;;;4973545;28;20062;-87
2023/05/05 05:09:58;;;;;;;0.20;0.20;;;11.10;96.70;;;;;;4954641;28;20034;-88
2023/05/05 05:12:23;;;;;;;0.20;0.20;;;11.00;96.80;;;;;;4983650;28;20102;-87
2023/05/05 05:14:49;;;;;;;0.20;0.20;;;11.00;96.90;;;;;;4984230;28;20118;-87
2023/05/05 05:17:15;;;;;;;0.20;0.20;;;10.90;97.10;;;;;;4949738;28;20047;-86
2023/05/05 05:19:43;;;;;;;0.20;0.20;;;10.90;97.20;;;;;;4960296;28;20122;-86
2023/05/05 05:22:09;;;;;;;0.20;0.20;;;10.80;97.40;;;;;;4973340;28;20053;-87
2023/05/05 05:24:35;;;;;;;0.20;0.20;;;10.90;97.60;;;;;;4971371;28;20043;-86
2023/05/05 05:27:01;;;;;;;0.10;0.10;;;10.90;97.80;;;;;;4972277;28;20130;-85
2023/05/05 05:29:30;;;;;;;0.20;0.20;;;10.80;97.90;;;;;;4965191;28;20154;-88
2023/05/05 05:31:55;;;;;;;0.10;0.10;;;10.80;98.10;;;;;;4952975;28;20047;-86
2023/05/05 05:34:21;;;;;;;0.20;0.20;;;10.80;98.20;;;;;;4958624;28;20042;-86
2023/05/05 05:36:46;;;;;;;0.20;0.20;;;10.70;98.40;;;;;;4966008;28;20046;-86
2023/05/05 05:39:15;;;;;;;0.10;0.10;;;10.70;98.50;;;;;;4951158;28;20212;-87
2023/05/05 05:41:40;;;;;;;0.20;0.20;;;10.70;98.70;;;;;;4970574;28;20435;-87
2023/05/05 05:44:06;;;;;;;0.20;0.20;;;10.70;98.80;;;;;;4973602;28;20057;-85
2023/05/05 05:46:32;;;;;;;0.10;0.10;;;10.70;99.00;;;;;;4960519;28;20047;-86
2023/05/05 05:48:57;;;;;;;0.20;0.20;;;10.80;99.20;;;;;;4945694;28;20054;-85
2023/05/05 05:54:06;;;;;;;0.10;0.10;;;10.80;99.50;;;;;;4973123;28;20059;-87
2023/05/05 05:56:35;;;;;;;0.20;0.20;;;10.80;99.60;;;;;;4975949;28;20629;-88
2023/05/05 05:59:03;;;;;;;0.20;0.20;;;10.80;99.70;;;;;;4967874;28;20070;-87
2023/05/05 06:01:29;;;;;;;0.20;0.20;;;10.90;99.80;;;;;;4956207;28;20522;-86
2023/05/05 06:03:57;;;;;;;0.20;0.20;;;10.90;99.90;;;;;;4966810;28;20039;-89
2023/05/05 06:07:01;;;;;;;0.10;0.10;;;11.00;99.90;;;;;;5152564;23;20057;-89
2023/05/05 06:09:29;;;;;;;0.20;0.20;;;11.00;99.90;;;;;;5070340;23;20045;-91
2023/05/05 06:12:02;;;;;;;0.10;0.10;;;11.30;99.90;;;;;;5037073;23;20046;-91
2023/05/05 06:15:06;;;;;;;0.20;0.20;;;11.20;99.90;;;;;;4947404;28;20050;-90
2023/05/05 06:17:35;;;;;;;0.20;0.20;;;11.20;99.90;;;;;;4994161;28;20056;-89
2023/05/05 06:20:39;;;;;;;0.20;0.20;;;11.30;99.90;;;;;;4966409;28;20385;-88
2023/05/05 06:23:37;;;;;;;0.10;0.10;;;11.10;99.90;;;;;;4927863;29;20067;-88
2023/05/05 06:26:18;;;;;;;0.17;0.17;;;11.10;99.90;;;;;;4921080;29;20090;-88
2023/05/05 06:28:49;;;;;;;0.20;0.20;;;11.30;99.90;;;;;;4923900;29;20150;-89
2023/05/05 06:33:47;;;;;;;0.10;0.10;;;11.40;99.90;;;;;;5077225;23;20050;-83
2023/05/05 06:36:12;;;;;;;0.20;0.20;;;11.40;99.90;;;;;;4998892;28;20264;-84
2023/05/05 06:38:38;;;;;;;0.20;0.20;;;11.40;99.90;;;;;;5018551;28;20045;-83
2023/05/05 06:41:04;;;;;;;0.20;0.20;;;11.50;99.90;;;;;;4999203;28;20421;-84
2023/05/05 06:43:30;;;;;;;0.10;0.10;;;11.60;99.90;;;;;;4991292;28;20068;-83
2023/05/05 06:45:55;;;;;;;0.20;0.20;;;11.70;99.90;;;;;;4990024;28;20042;-83
2023/05/05 06:48:21;;;;;;;0.20;0.20;;;11.70;99.90;;;;;;5033008;23;20374;-84
2023/05/05 06:51:11;;;;;;;0.20;0.20;;;12.00;99.90;;;;;;5088866;23;20056;-83
2023/05/05 06:53:40;;;;;;;0.10;0.10;;;11.90;99.90;;;;;;4980186;28;20081;-84
2023/05/05 06:59:52;;;;;;;0.10;0.10;;;12.00;99.90;;;;;;5104450;23;20061;-83
2023/05/05 07:02:21;;;;;;;0.20;0.20;;;12.00;99.90;;;;;;5004017;28;20141;-84
2023/05/05 07:04:49;;;;;;;0.20;0.20;;;12.00;99.90;;;;;;4983338;28;20133;-84
2023/05/05 07:15:59;;;;;;;0.20;0.20;;;11.50;99.90;;;;;;5024164;23;20668;-84
2023/05/05 07:18:25;;;;;;;0.20;0.20;;;12.00;99.90;;;;;;5000772;28;20451;-83
2023/05/05 07:20:51;;;;;;;0.20;0.20;;;12.10;99.90;;;;;;5010038;28;20042;-84
2023/05/05 07:23:16;;;;;;;0.20;0.20;;;12.20;99.90;;;;;;5020993;28;20732;-83
2023/05/05 07:25:42;;;;;;;0.20;0.20;;;12.20;99.90;;;;;;5002738;28;20140;-84
2023/05/05 07:28:09;;;;;;;0.15;0.15;;;12.30;99.90;;;;;;5013036;28;20037;-84
2023/05/05 07:30:34;;;;;;;0.10;0.10;;;12.30;99.90;;;;;;5013970;28;20069;-87
2023/05/05 07:33:00;;;;;;;0.20;0.20;;;12.40;99.90;;;;;;5000903;28;20402;-91
2023/05/05 07:35:26;;;;;;;0.17;0.17;;;12.40;99.90;;;;;;5001404;28;20057;-90
2023/05/05 07:37:52;;;;;;;0.10;0.10;;;12.50;99.90;;;;;;5006392;28;20512;-89
2023/05/05 07:40:18;;;;;;;0.20;0.20;;;12.50;99.90;;;;;;5004604;28;20037;-87
2023/05/05 07:42:43;;;;;;;0.20;0.20;;;12.50;99.90;;;;;;5008453;28;20107;-88
2023/05/05 07:45:09;;;;;;;0.20;0.20;;;12.60;99.90;;;;;;5014312;28;20124;-88
2023/05/05 07:47:35;;;;;;;0.20;0.20;;;12.70;99.90;;;;;;5017872;28;20048;-86
2023/05/05 07:50:01;;;;;;;0.15;0.15;;;12.70;99.90;;;;;;5006913;28;20132;-88
2023/05/05 07:52:26;;;;;;;0.17;0.17;;;12.80;99.90;;;;;;5012148;28;20045;-87
2023/05/05 07:54:52;;;;;;;0.20;0.20;;;12.80;99.90;;;;;;5007653;28;20041;-90
2023/05/05 07:57:18;;;;;;;0.20;0.20;;;13.00;99.90;;;;;;5019689;28;20060;-89
2023/05/05 07:59:43;;;;;;;0.10;0.10;;;13.00;99.90;;;;;;5003544;28;20053;-89
2023/05/05 08:02:11;;;;;;;0.20;0.20;;;13.00;99.90;;;;;;5028289;28;20091;-89
2023/05/05 08:04:38;;;;;;;0.10;0.10;;;13.10;99.90;;;;;;5020067;28;20046;-88
2023/05/05 08:07:04;;;;;;;0.20;0.20;;;13.10;99.70;;;;;;5023003;28;20081;-88
2023/05/05 08:09:29;;;;;;;0.17;0.17;;;13.20;99.70;;;;;;5000914;28;20520;-90
2023/05/05 08:11:55;;;;;;;0.15;0.15;;;13.20;99.60;;;;;;5020619;28;20050;-90
2023/05/05 08:14:21;;;;;;;0.20;0.20;;;13.30;99.60;;;;;;5005443;28;20784;-87
2023/05/05 08:16:46;;;;;;;0.20;0.20;;;13.30;99.50;;;;;;5005787;28;20072;-88
2023/05/05 08:19:12;;;;;;;0.20;0.20;;;13.40;99.50;;;;;;5006075;28;20104;-89
2023/05/05 08:21:38;;;;;;;0.10;0.10;;;13.40;99.70;;;;;;5004845;28;20049;-87
2023/05/05 08:24:03;;;;;;;0.20;0.20;;;13.50;99.70;;;;;;5024657;28;20045;-88
2023/05/05 08:26:29;;;;;;;0.10;0.10;;;13.60;99.70;;;;;;5013446;28;20056;-87
2023/05/05 08:28:59;;;;;;;0.20;0.20;;;13.70;99.60;;;;;;5007976;28;20446;-87
2023/05/05 08:31:37;;;;;;;0.22;0.22;;;13.70;99.50;;;;;;5024906;28;20046;-85
2023/05/05 08:34:04;;;;;;;0.20;0.20;;;13.80;99.50;;;;;;5013012;28;20054;-88
2023/05/05 08:36:31;;;;;;;0.20;0.20;;;13.70;99.40;;;;;;5008097;28;20048;-87
2023/05/05 08:38:58;;;;;;;0.17;0.17;;;14.00;99.50;;;;;;5009723;28;20045;-88
2023/05/05 08:41:25;;;;;;;0.13;0.13;;;14.00;99.40;;;;;;5031593;28;20124;-88
2023/05/05 08:43:51;;;;;;;0.17;0.17;;;14.10;99.40;;;;;;5022907;28;20544;-88
2023/05/05 08:46:17;;;;;;;0.20;0.20;;;14.20;99.40;;;;;;5013080;28;20138;-88
2023/05/05 08:48:44;;;;;;;0.17;0.17;;;14.20;99.40;;;;;;5012715;28;20069;-87
2023/05/05 08:51:15;;;;;;;0.20;0.20;;;14.30;99.30;;;;;;5027129;28;20559;-89
2023/05/05 08:53:51;;;;;;;0.20;0.20;;;14.40;99.30;;;;;;5009728;28;20077;-88
2023/05/05 08:56:18;;;;;;;0.17;0.17;;;14.40;99.20;;;;;;5011395;28;20125;-89
2023/05/05 08:58:46;;;;;;;0.20;0.20;;;14.40;99.10;;;;;;5008027;28;20038;-88
2023/05/05 09:01:16;;;;;;;0.15;0.15;;;14.50;99.30;;;;;;5027075;28;20049;-88
2023/05/05 09:03:43;;;;;;;0.17;0.17;;;14.50;99.20;;;;;;5031363;28;20490;-87
2023/05/05 09:06:09;;;;;;;0.20;0.20;;;14.60;99.20;;;;;;5012184;28;20057;-88
2023/05/05 09:08:37;;;;;;;0.20;0.20;;;14.60;99.00;;;;;;5018287;28;20105;-91
2023/05/05 09:11:06;;;;;;;0.13;0.13;;;14.70;99.20;;;;;;5008855;28;20053;-89
2023/05/05 09:13:31;;;;;;;0.20;0.20;;;14.70;99.10;;;;;;5014908;28;20404;-89
2023/05/05 09:15:58;;;;;;;0.20;0.20;;;14.80;99.10;;;;;;5029180;28;20043;-89
2023/05/05 09:18:24;;;;;;;0.20;0.20;;;14.80;99.20;;;;;;5006267;28;20053;-90
2023/05/05 09:20:50;;;;;;;0.20;0.20;;;14.90;99.10;;;;;;5009908;28;20120;-91
2023/05/05 09:23:17;;;;;;;0.10;0.10;;;14.90;99.00;;;;;;5024542;28;20522;-90
2023/05/05 09:25:46;;;;;;;0.13;0.13;;;15.00;99.20;;;;;;5019877;28;20579;-90
2023/05/05 09:28:14;;;;;;;0.10;0.10;;;15.00;99.20;;;;;;5010406;28;20543;-90
2023/05/05 09:30:41;;;;;;;0.20;0.20;;;15.20;99.20;;;;;;5012580;28;20044;-89
2023/05/05 09:33:07;;;;;;;0.20;0.20;;;15.20;99.00;;;;;;5011666;28;20042;-92
2023/05/05 09:35:53;;;;;;;0.20;0.20;;;15.30;99.10;;;;;;5025988;28;20389;-90
2023/05/05 09:38:20;;;;;;;0.20;0.20;;;15.40;99.10;;;;;;5028666;28;20045;-92
2023/05/05 09:40:47;;;;;;;0.13;0.13;;;15.50;99.20;;;;;;5013364;28;20038;-92
2023/05/05 09:43:14;;;;;;;0.20;0.20;;;15.70;99.30;;;;;;5030478;28;20429;-92
2023/05/05 09:45:40;;;;;;;0.20;0.20;;;15.80;99.40;;;;;;5014737;28;20033;-92
2023/05/05 09:48:06;;;;;;;0.20;0.20;;;16.00;99.40;;;;;;5026333;28;20056;-91
2023/05/05 09:50:43;;;;;;;0.20;0.20;;;16.20;99.30;;;;;;5008811;28;20046;-91
2023/05/05 09:53:10;;;;;;;0.20;0.20;;;16.30;99.10;;;;;;5015461;28;20029;-91
2023/05/05 09:55:36;;;;;;;0.20;0.20;;;16.40;99.00;;;;;;5030650;28;20050;-90
2023/05/05 09:58:41;;;;;;;0.10;0.10;;;16.50;99.00;;;;;;5021846;28;20140;-91
2023/05/05 10:01:21;;;;;;;0.20;0.20;;;16.60;98.90;;;;;;4954344;28;20055;-92
2023/05/05 10:03:51;;;;;;;0.20;0.20;;;16.60;98.80;;;;;;4953967;28;20093;-92
2023/05/05 10:06:16;;;;;;;0.20;0.20;;;16.70;98.70;;;;;;4987230;28;20317;-90
2023/05/05 10:08:59;;;;;;;0.20;0.20;;;16.70;98.60;;;;;;5012901;28;20064;-84
2023/05/05 10:11:24;;;;;;;0.20;0.20;;;16.80;98.60;;;;;;5007213;28;20088;-89
2023/05/05 10:13:50;;;;;;;0.20;0.20;;;16.80;98.60;;;;;;5010735;28;20482;-89
2023/05/05 10:16:18;;;;;;;0.20;0.20;;;16.80;98.50;;;;;;5006607;28;20061;-88
2023/05/05 10:18:45;;;;;;;0.10;0.10;;;16.80;98.50;;;;;;5026717;28;20041;-88
2023/05/05 10:21:15;;;;;;;0.20;0.20;;;16.90;98.50;;;;;;5031034;28;20109;-89
2023/05/05 10:23:48;;;;;;;0.20;0.20;;;16.90;98.40;;;;;;5022385;28;20544;-88
2023/05/05 10:26:16;;;;;;;0.20;0.20;;;16.90;98.50;;;;;;4995536;28;20493;-89
2023/05/05 10:28:50;;;;;;;0.15;0.15;;;17.00;98.60;;;;;;5001363;28;20041;-90
2023/05/05 10:31:20;;;;;;;0.20;0.20;;;17.10;98.70;;;;;;5028969;28;20038;-91
2023/05/05 10:34:07;;;;;;;0.10;0.10;;;17.20;98.90;;;;;;5032596;28;20445;-87
2023/05/05 10:36:35;;;;;;;0.10;0.10;;;17.40;98.90;;;;;;4992068;28;20513;-87
2023/05/05 10:39:01;;;;;;;0.20;0.20;;;17.50;98.90;;;;;;5025318;28;20049;-89
2023/05/05 10:41:29;;;;;;;0.20;0.20;;;17.70;98.80;;;;;;5024194;28;20063;-89
2023/05/05 10:43:56;;;;;;;0.20;0.20;;;17.80;98.70;;;;;;5029137;28;20045;-89
2023/05/05 10:46:22;;;;;;;0.10;0.10;;;18.00;98.80;;;;;;5004759;28;20045;-89
2023/05/05 10:48:54;;;;;;;0.20;0.20;;;18.30;99.00;;;;;;5026730;28;20044;-91
2023/05/05 10:51:46;;;;;;;0.20;0.20;;;18.40;99.10;;;;;;4997911;28;20398;-89
2023/05/05 10:54:35;;;;;;;0.20;0.20;;;18.70;98.80;;;;;;5008831;28;20041;-91
2023/05/05 10:57:04;;;;;;;0.20;0.20;;;18.90;98.60;;;;;;5029379;28;20056;-90
2023/05/05 10:59:35;;;;;;;0.20;0.20;;;19.00;98.50;;;;;;5011346;28;20563;-88
2023/05/05 11:02:17;;;;;;;0.20;0.20;;;19.20;98.50;;;;;;5028680;28;20045;-89
2023/05/05 11:05:04;;;;;;;0.10;0.10;;;19.20;98.10;;;;;;5008852;28;20124;-90
2023/05/05 11:07:30;;;;;;;0.10;0.10;;;19.30;98.10;;;;;;5015384;28;20041;-87
2023/05/05 11:10:00;;;;;;;0.20;0.20;;;19.30;97.90;;;;;;5029160;28;20091;-89
2023/05/05 11:12:26;;;;;;;0.20;0.20;;;19.30;98.10;;;;;;5009903;28;20037;-93
2023/05/05 11:15:22;;;;;;;0.20;0.20;;;19.40;98.20;;;;;;5022770;28;20060;-94
2023/05/05 11:17:48;;;;;;;0.20;0.20;;;19.50;98.20;;;;;;4989208;28;20098;-92
2023/05/05 11:20:38;;;;;;;0.20;0.20;;;19.60;98.00;;;;;;4985510;28;20109;-92
2023/05/05 11:23:04;;;;;;;0.20;0.20;;;19.60;98.00;;;;;;4988429;28;20066;-86
2023/05/05 11:25:35;;;;;;;0.20;0.20;;;19.70;98.20;;;;;;4995132;28;20082;-91
2023/05/05 11:28:05;;;;;;;0.20;0.20;;;19.80;98.50;;;;;;4987450;28;20085;-91
2023/05/05 11:30:31;;;;;;;0.20;0.20;;;20.00;98.60;;;;;;4991786;28;20150;-89
2023/05/05 11:33:36;;;;;;;0.20;0.20;;;20.20;98.50;;;;;;4984408;28;20038;-83
2023/05/05 11:36:10;;;;;;;0.20;0.20;;;20.30;98.00;;;;;;4989035;28;20133;-87
2023/05/05 11:39:16;;;;;;;0.20;0.20;;;20.40;97.60;;;;;;4994334;28;20548;-87
2023/05/05 11:41:57;;;;;;;0.20;0.20;;;20.30;97.70;;;;;;4991515;28;20387;-86
2023/05/05 11:44:33;;;;;;;0.20;0.20;;;20.30;97.90;;;;;;4985537;28;20561;-86
2023/05/05 11:46:59;;;;;;;0.17;0.17;;;20.40;98.00;;;;;;4991183;28;20049;-86
2023/05/05 11:49:36;;;;;;;0.20;0.20;;;20.50;98.00;;;;;;5007737;28;20054;-84
2023/05/05 11:52:05;;;;;;;0.20;0.20;;;20.50;97.60;;;;;;5006057;28;20430;-86
2023/05/05 11:54:34;;;;;;;0.10;0.10;;;20.50;97.40;;;;;;4991632;28;20064;-84
2023/05/05 11:57:04;;;;;;;0.10;0.10;;;20.50;97.10;;;;;;4986661;28;20056;-84
2023/05/05 11:59:31;;;;;;;0.20;0.20;;;20.50;96.90;;;;;;4993363;28;20045;-85
2023/05/05 12:01:57;;;;;;;0.30;0.30;;;20.60;96.80;;;;;;5009188;28;20445;-84
2023/05/05 12:04:23;;;;;;;0.17;0.17;;;20.50;96.70;;;;;;4994942;28;20046;-85
2023/05/05 12:06:49;;;;;;;0.20;0.20;;;20.50;96.70;;;;;;4994886;28;20046;-85
2023/05/05 12:09:19;;;;;;;0.15;0.15;;;20.50;96.80;;;;;;5008102;28;20042;-84
2023/05/05 12:11:52;;;;;;;0.20;0.20;;;20.50;97.00;;;;;;5013102;28;20470;-85
2023/05/05 12:14:18;;;;;;;0.20;0.20;;;20.60;97.20;;;;;;4989354;28;20121;-84
2023/05/05 12:16:54;;;;;;;0.20;0.20;;;20.70;97.00;;;;;;5019526;28;20053;-87
2023/05/05 12:19:20;;;;;;;0.10;0.10;;;20.80;96.80;;;;;;5007379;28;20057;-87
2023/05/05 12:21:46;;;;;;;0.20;0.20;;;20.80;96.70;;;;;;5012553;28;20083;-86
2023/05/05 12:24:12;;;;;;;0.20;0.20;;;20.90;96.70;;;;;;4994572;28;20042;-85
2023/05/05 12:26:38;;;;;;;0.20;0.20;;;20.90;96.50;;;;;;4994848;28;20050;-86
2023/05/05 12:29:04;;;;;;;0.17;0.17;;;20.90;96.40;;;;;;4995244;28;20517;-87
2023/05/05 12:31:34;;;;;;;0.20;0.20;;;20.90;96.20;;;;;;5001818;28;20060;-85
2023/05/05 12:34:01;;;;;;;0.20;0.20;;;20.90;96.30;;;;;;5014387;28;20041;-86
2023/05/05 12:36:28;;;;;;;0.20;0.20;;;20.90;96.30;;;;;;5013312;28;20037;-86
2023/05/05 12:38:54;;;;;;;0.20;0.20;;;20.90;96.20;;;;;;5014440;28;20073;-84
2023/05/05 12:41:20;;;;;;;0.20;0.20;;;20.80;96.00;;;;;;5013823;28;20085;-85
2023/05/05 12:43:46;;;;;;;0.10;0.10;;;20.70;96.00;;;;;;5013756;28;20037;-86
2023/05/05 12:46:13;;;;;;;0.20;0.20;;;20.70;95.80;;;;;;5031052;28;20398;-85
2023/05/05 12:48:42;;;;;;;0.20;0.20;;;20.50;95.80;;;;;;5030096;28;20532;-85
2023/05/05 12:51:22;;;;;;;0.20;0.20;;;20.50;96.30;;;;;;5010910;28;20147;-86
2023/05/05 12:53:59;;;;;;;0.20;0.20;;;20.40;96.00;;;;;;5009762;28;20046;-87
2023/05/05 12:56:39;;;;;;;0.20;0.20;;;20.30;96.30;;;;;;4994647;28;20073;-88
2023/05/05 12:59:26;;;;;;;0.20;0.20;;;20.20;96.50;;;;;;5012737;28;20049;-83
2023/05/05 13:02:00;;;;;;;0.20;0.20;;;20.00;96.80;;;;;;5026061;28;20069;-87
2023/05/05 13:04:27;;;;;;;0.20;0.20;;;19.90;96.80;;;;;;5012985;28;20491;-76
2023/05/05 13:07:13;;;;;;;0.20;0.20;;;19.80;97.10;;;;;;5006866;28;20053;-87
2023/05/05 13:09:38;;;;;;;0.20;0.20;;;19.70;97.00;;;;;;5012066;28;20095;-85
2023/05/05 13:12:07;;;;;;;0.20;0.20;;;19.50;97.10;;;;;;5026792;28;20611;-88
2023/05/05 13:14:32;;;;;;;0.20;0.20;;;19.40;97.40;;;;;;5031675;28;20427;-88
2023/05/05 13:17:05;;;;;;;0.10;0.10;;;19.30;97.40;;;;;;5008158;28;20054;-88
2023/05/05 13:19:30;;;;;;;0.10;0.10;;;19.20;97.30;;;;;;5014264;28;20041;-87
2023/05/05 13:21:57;;;;;;;0.15;0.15;;;19.10;97.40;;;;;;5013894;28;20063;-88
2023/05/05 13:24:23;;;;;;;0.20;0.20;;;19.10;97.50;;;;;;5012194;28;20073;-88
2023/05/05 13:26:50;;;;;;;0.20;0.20;;;18.90;97.70;;;;;;5014191;28;20056;-91
2023/05/05 13:29:16;;;;;;;0.10;0.10;;;18.80;97.90;;;;;;5025315;28;20473;-87
2023/05/05 13:31:42;;;;;;;0.20;0.20;;;18.70;98.10;;;;;;5030327;28;20395;-86
2023/05/05 13:34:08;;;;;;;0.20;0.20;;;18.60;98.10;;;;;;5027483;28;20126;-82
2023/05/05 13:36:34;;;;;;;0.20;0.20;;;18.30;98.60;;;;;;5010873;28;20041;-83
2023/05/05 13:39:00;;;;;;;0.20;0.20;;;18.10;98.90;;;;;;5012850;28;20477;-84
2023/05/05 13:41:26;;;;;;;0.20;0.20;;;17.90;99.20;;;;;;5027399;28;20457;-84
2023/05/05 13:43:51;;;;;;;0.20;0.20;;;17.70;99.40;;;;;;5012430;28;20065;-84
2023/05/05 13:46:20;;;;;;;0.20;0.20;;;17.60;99.60;;;;;;5009016;28;20076;-84
2023/05/05 13:48:46;;;;;;;1.27;0.30;;;17.40;99.80;;;;;;5011894;28;20041;-83
2023/05/05 13:51:11;;;;;;;0.10;0.10;;;17.30;99.90;;;;;;5029753;28;20470;-84
2023/05/05 13:53:39;;;;;;;0.20;0.20;;;17.20;99.90;;;;;;5008667;28;20477;-85
2023/05/05 13:56:05;;;;;;;0.20;0.20;;;17.00;99.90;;;;;;5012015;28;20125;-85
2023/05/05 13:58:31;;;;;;;0.20;0.20;;;16.90;99.90;;;;;;5025089;28;20128;-84
2023/05/05 14:00:56;;;;;;;0.20;0.20;;;16.70;99.90;;;;;;5011122;28;20052;-84
2023/05/05 14:03:22;;;;;;;0.10;0.10;;;16.60;99.90;;;;;;5007242;28;20034;-85
2023/05/05 14:05:49;;;;;;;0.20;0.20;;;16.50;99.90;;;;;;4993502;28;20129;-84
2023/05/05 14:08:15;;;;;;;0.20;0.20;;;16.40;99.90;;;;;;4999351;28;20536;-84
2023/05/05 14:10:41;;;;;;;0.13;0.13;;;16.40;99.90;;;;;;5026600;28;20128;-84
2023/05/05 14:13:06;;;;;;;0.10;0.10;;;16.40;99.90;;;;;;5003576;28;20065;-84
2023/05/05 14:15:32;;;;;;;0.20;0.20;;;16.30;99.90;;;;;;5014254;28;20053;-85
2023/05/05 14:17:58;;;;;;;0.20;0.20;;;16.20;99.90;;;;;;5010871;28;20390;-83
2023/05/05 14:20:27;;;;;;;0.20;0.20;;;16.30;99.90;;;;;;5026963;28;20657;-83
2023/05/05 14:22:53;;;;;;;0.15;0.15;;;16.10;99.90;;;;;;5009599;28;20499;-84
2023/05/05 14:25:20;;;;;;;0.20;0.20;;;16.00;99.90;;;;;;5012824;28;20124;-84